createdAt,value
2023-03-29T00:00:07.741Z,6.80
2023-03-29T00:02:39.246Z,6.90
2023-03-29T00:05:07.461Z,6.90
2023-03-29T00:07:34.764Z,7.00
2023-03-29T00:10:04.729Z,7.00
2023-03-29T00:12:31.976Z,6.90
2023-03-29T00:14:59.067Z,7.00
2023-03-29T00:17:26.413Z,6.90
2023-03-29T00:19:53.573Z,6.90
2023-03-29T00:22:21.419Z,6.90
2023-03-29T00:24:49.222Z,6.90
2023-03-29T00:27:16.930Z,6.90
2023-03-29T00:29:44.206Z,6.90
2023-03-29T00:32:12.143Z,6.90
2023-03-29T00:34:42.673Z,7.00
2023-03-29T00:37:10.105Z,7.00
2023-03-29T00:39:37.573Z,7.00
2023-03-29T00:42:04.831Z,7.00
2023-03-29T00:45:06.338Z,6.90
2023-03-29T00:47:57.191Z,6.90
2023-03-29T00:50:30.855Z,6.90
2023-03-29T00:53:29.545Z,7.00
2023-03-29T00:56:04.488Z,6.90
2023-03-29T00:59:00.293Z,7.00
2023-03-29T01:01:48.258Z,7.00
2023-03-29T01:04:34.036Z,7.00
2023-03-29T01:07:21.382Z,7.00
2023-03-29T01:10:09.193Z,7.00
2023-03-29T01:12:44.594Z,7.00
2023-03-29T01:15:15.413Z,7.00
2023-03-29T01:17:50.328Z,7.00
2023-03-29T01:20:22.335Z,7.00
2023-03-29T01:23:15.942Z,7.00
2023-03-29T01:26:19.663Z,7.00
2023-03-29T01:29:04.780Z,7.00
2023-03-29T01:31:42.386Z,7.00
2023-03-29T01:34:22.056Z,7.00
2023-03-29T01:37:00.391Z,7.00
2023-03-29T01:39:27.666Z,7.00
2023-03-29T01:42:42.675Z,7.00
2023-03-29T01:45:37.017Z,7.00
2023-03-29T01:48:51.256Z,7.00
2023-03-29T01:51:21.202Z,7.10
2023-03-29T01:54:00.745Z,7.00
2023-03-29T01:56:34.304Z,7.00
2023-03-29T01:59:07.745Z,7.10
2023-03-29T02:01:42.588Z,7.10
2023-03-29T02:04:13.375Z,7.10
2023-03-29T02:06:42.086Z,7.00
2023-03-29T02:09:09.914Z,7.10
2023-03-29T02:11:38.246Z,7.20
2023-03-29T02:14:05.670Z,7.10
2023-03-29T02:16:39.153Z,7.10
2023-03-29T02:19:07.919Z,7.10
2023-03-29T02:21:48.340Z,7.20
2023-03-29T02:24:20.665Z,7.20
2023-03-29T02:26:48.948Z,7.20
2023-03-29T02:29:16.344Z,7.30
2023-03-29T02:32:00.196Z,7.30
2023-03-29T02:34:40.135Z,7.30
2023-03-29T02:37:15.682Z,7.30
2023-03-29T02:39:43.064Z,7.30
2023-03-29T02:42:10.973Z,7.30
2023-03-29T02:44:41.776Z,7.40
2023-03-29T02:47:16.831Z,7.40
2023-03-29T02:49:44.351Z,7.40
2023-03-29T02:52:22.193Z,7.40
2023-03-29T02:54:51.643Z,7.40
2023-03-29T02:57:26.677Z,7.30
2023-03-29T02:59:56.995Z,7.40
2023-03-29T03:02:27.885Z,7.40
2023-03-29T03:04:55.855Z,7.50
2023-03-29T03:07:24.928Z,7.40
2023-03-29T03:09:52.039Z,7.40
2023-03-29T03:12:19.184Z,7.40
2023-03-29T03:14:46.413Z,7.40
2023-03-29T03:17:13.469Z,7.40
2023-03-29T03:19:40.731Z,7.40
2023-03-29T03:22:09.903Z,7.50
2023-03-29T03:24:37.353Z,7.40
2023-03-29T03:27:04.931Z,7.40
2023-03-29T03:29:32.080Z,7.40
2023-03-29T03:32:05.821Z,7.40
2023-03-29T03:34:51.675Z,7.40
2023-03-29T03:37:20.036Z,7.50
2023-03-29T03:39:47.644Z,7.50
2023-03-29T03:42:15.434Z,7.50
2023-03-29T03:44:44.948Z,7.60
2023-03-29T03:47:29.290Z,7.50
2023-03-29T03:49:58.590Z,7.50
2023-03-29T03:52:27.036Z,7.40
2023-03-29T03:54:54.199Z,7.30
2023-03-29T03:57:40.327Z,7.20
2023-03-29T04:00:19.758Z,7.10
2023-03-29T04:02:54.625Z,6.90
2023-03-29T04:05:21.941Z,6.80
2023-03-29T04:07:49.697Z,6.70
2023-03-29T04:10:19.823Z,6.60
2023-03-29T04:13:13.440Z,6.50
2023-03-29T04:16:01.709Z,6.40
2023-03-29T04:18:29.961Z,6.30
2023-03-29T04:20:59.519Z,6.30
2023-03-29T04:23:28.621Z,6.20
2023-03-29T04:25:56.784Z,6.20
2023-03-29T04:28:46.623Z,6.20
2023-03-29T04:31:18.780Z,6.10
2023-03-29T04:34:21.581Z,6.10
2023-03-29T04:36:50.849Z,6.00
2023-03-29T04:39:22.184Z,6.00
2023-03-29T04:41:54.648Z,5.90
2023-03-29T04:44:26.861Z,6.00
2023-03-29T04:46:54.045Z,6.10
2023-03-29T04:49:21.180Z,6.20
2023-03-29T04:51:51.576Z,6.40
2023-03-29T04:54:21.703Z,6.40
2023-03-29T04:57:14.688Z,6.50
2023-03-29T05:00:15.161Z,6.60
2023-03-29T05:03:00.007Z,6.70
2023-03-29T05:05:30.175Z,6.80
2023-03-29T05:08:00.806Z,6.90
2023-03-29T05:10:37.523Z,6.90
2023-03-29T05:13:04.753Z,7.00
2023-03-29T05:15:32.774Z,7.10
2023-03-29T05:18:00.937Z,7.20
2023-03-29T05:20:28.630Z,7.20
2023-03-29T05:22:57.353Z,7.30
2023-03-29T05:25:57.197Z,7.30
2023-03-29T05:28:24.438Z,7.20
2023-03-29T05:31:04.464Z,7.20
2023-03-29T05:33:34.667Z,7.20
2023-03-29T05:36:14.451Z,7.20
2023-03-29T05:38:46.691Z,7.10
2023-03-29T05:41:15.974Z,7.20
2023-03-29T05:44:01.625Z,7.20
2023-03-29T05:46:29.862Z,7.20
2023-03-29T05:49:01.723Z,7.30
2023-03-29T05:51:58.422Z,7.30
2023-03-29T05:54:27.251Z,7.40
2023-03-29T05:56:54.649Z,7.30
2023-03-29T05:59:23.609Z,7.40
2023-03-29T06:01:51.949Z,7.40
2023-03-29T06:04:21.402Z,7.40
2023-03-29T06:07:12.658Z,7.50
2023-03-29T06:09:44.739Z,7.60
2023-03-29T06:12:12.318Z,7.70
2023-03-29T06:14:45.718Z,7.80
2023-03-29T06:17:25.338Z,7.80
2023-03-29T06:19:53.523Z,7.90
2023-03-29T06:22:24.423Z,7.90
2023-03-29T06:24:52.184Z,7.90
2023-03-29T06:27:29.496Z,7.90
2023-03-29T06:29:57.414Z,7.90
2023-03-29T06:32:24.524Z,7.90
2023-03-29T06:34:57.857Z,8.00
2023-03-29T06:37:25.087Z,8.00
2023-03-29T06:40:02.506Z,8.10
2023-03-29T06:42:35.883Z,8.10
2023-03-29T06:45:34.770Z,8.10
2023-03-29T06:48:07.836Z,8.10
2023-03-29T06:50:36.263Z,8.20
2023-03-29T06:53:11.591Z,8.20
2023-03-29T06:55:40.007Z,8.30
2023-03-29T06:58:29.910Z,8.40
2023-03-29T07:01:04.019Z,8.40
2023-03-29T07:03:51.780Z,8.50
2023-03-29T07:06:24.362Z,8.60
2023-03-29T07:08:52.592Z,8.80
2023-03-29T07:11:46.663Z,8.80
2023-03-29T07:14:23.059Z,8.80
2023-03-29T07:16:52.336Z,8.80
2023-03-29T07:19:30.184Z,8.80
2023-03-29T07:21:57.964Z,8.90
2023-03-29T07:24:35.729Z,8.90
2023-03-29T07:27:04.835Z,9.00
2023-03-29T07:29:33.314Z,9.10
2023-03-29T07:32:00.935Z,9.10
2023-03-29T07:35:00.383Z,9.30
2023-03-29T07:37:36.957Z,9.40
2023-03-29T07:40:09.405Z,9.40
2023-03-29T07:42:45.481Z,9.40
2023-03-29T07:45:17.631Z,9.40
2023-03-29T07:47:59.108Z,9.30
2023-03-29T07:50:32.572Z,9.20
2023-03-29T07:53:03.007Z,9.30
2023-03-29T07:55:31.979Z,9.30
2023-03-29T07:58:19.394Z,9.30
2023-03-29T08:00:46.639Z,9.30
2023-03-29T08:03:36.490Z,9.30
2023-03-29T08:06:06.319Z,9.30
2023-03-29T08:08:33.439Z,9.40
2023-03-29T08:11:09.056Z,9.50
2023-03-29T08:13:53.840Z,9.60
2023-03-29T08:16:20.978Z,9.60
2023-03-29T08:18:55.634Z,9.80
2023-03-29T08:21:26.530Z,9.80
2023-03-29T08:23:53.902Z,10.00
2023-03-29T08:26:25.783Z,10.20
2023-03-29T08:28:53.243Z,10.40
2023-03-29T08:31:23.037Z,10.50
2023-03-29T08:33:50.350Z,10.60
2023-03-29T08:36:37.761Z,10.80
2023-03-29T08:39:12.176Z,10.90
2023-03-29T08:42:22.749Z,11.00
2023-03-29T08:45:29.718Z,11.10
2023-03-29T08:48:28.829Z,11.00
2023-03-29T08:51:08.644Z,11.10
2023-03-29T08:53:41.835Z,11.00
2023-03-29T08:56:34.032Z,11.00
2023-03-29T08:59:33.198Z,11.10
2023-03-29T09:02:10.468Z,11.10
2023-03-29T09:04:42.520Z,11.10
2023-03-29T09:07:26.043Z,11.20
2023-03-29T09:09:55.562Z,11.20
2023-03-29T09:13:11.232Z,11.40
2023-03-29T09:15:53.136Z,11.30
2023-03-29T09:19:25.466Z,11.40
2023-03-29T09:22:33.055Z,11.50
2023-03-29T09:25:15.205Z,11.50
2023-03-29T09:28:08.230Z,11.60
2023-03-29T09:31:05.179Z,11.70
2023-03-29T09:33:59.042Z,11.90
2023-03-29T09:36:42.774Z,12.00
2023-03-29T09:39:15.145Z,12.20
2023-03-29T09:42:04.602Z,12.40
2023-03-29T09:44:40.876Z,12.50
2023-03-29T09:47:22.160Z,12.50
2023-03-29T09:49:57.164Z,12.60
2023-03-29T09:52:24.512Z,12.90
2023-03-29T09:55:27.744Z,13.10
2023-03-29T09:58:19.297Z,13.30
2023-03-29T10:00:51.190Z,13.40
2023-03-29T10:03:25.916Z,13.30
2023-03-29T10:06:14.623Z,13.40
2023-03-29T10:08:51.776Z,13.60
2023-03-29T10:11:33.064Z,13.80
2023-03-29T10:14:16.879Z,13.90
2023-03-29T10:16:46.340Z,14.00
2023-03-29T10:19:33.042Z,14.00
2023-03-29T10:22:07.747Z,14.10
2023-03-29T10:24:35.602Z,14.10
2023-03-29T10:27:12.429Z,14.20
2023-03-29T10:29:42.442Z,14.20
2023-03-29T10:32:35.278Z,14.20
2023-03-29T10:35:13.545Z,14.20
2023-03-29T10:37:44.041Z,14.30
2023-03-29T10:40:48.113Z,14.40
2023-03-29T10:43:32.775Z,14.50
2023-03-29T10:46:23.504Z,14.60
2023-03-29T10:49:05.959Z,14.50
2023-03-29T10:51:34.516Z,14.40
2023-03-29T10:54:03.866Z,14.30
2023-03-29T10:56:56.129Z,14.30
2023-03-29T10:59:44.297Z,14.30
2023-03-29T11:02:17.687Z,14.30
2023-03-29T11:05:01.179Z,14.30
2023-03-29T11:07:48.494Z,14.40
2023-03-29T11:11:06.444Z,14.50
2023-03-29T11:14:09.488Z,14.80
2023-03-29T11:16:57.311Z,14.80
2023-03-29T11:19:58.394Z,14.90
2023-03-29T11:23:03.146Z,14.90
2023-03-29T11:26:04.418Z,14.90
2023-03-29T11:28:39.213Z,14.80
2023-03-29T11:31:39.168Z,14.70
2023-03-29T11:34:41.399Z,14.70
2023-03-29T11:37:46.480Z,14.80
2023-03-29T11:41:15.987Z,14.90
2023-03-29T11:44:02.540Z,14.70
2023-03-29T11:46:32.722Z,14.60
2023-03-29T11:49:05.767Z,14.70
2023-03-29T11:51:46.327Z,14.80
2023-03-29T11:54:28.475Z,14.90
2023-03-29T11:57:18.159Z,14.80
2023-03-29T12:00:12.292Z,14.80
2023-03-29T12:02:48.018Z,14.80
2023-03-29T12:05:25.327Z,15.00
2023-03-29T12:08:05.534Z,15.10
2023-03-29T12:10:42.117Z,15.10
2023-03-29T12:13:17.216Z,15.30
2023-03-29T12:15:52.654Z,15.50
2023-03-29T12:18:22.541Z,15.70
2023-03-29T12:20:58.940Z,15.80
2023-03-29T12:23:34.538Z,16.00
2023-03-29T12:26:35.025Z,16.10
2023-03-29T12:29:39.039Z,15.90
2023-03-29T12:32:51.621Z,16.00
2023-03-29T12:36:09.709Z,16.10
2023-03-29T12:38:56.045Z,16.30
2023-03-29T12:41:44.979Z,16.20
2023-03-29T12:44:35.877Z,16.20
2023-03-29T12:47:26.681Z,16.00
2023-03-29T12:49:59.769Z,15.90
2023-03-29T12:52:36.819Z,15.90
2023-03-29T12:55:23.656Z,15.90
2023-03-29T12:58:28.694Z,15.80
2023-03-29T13:01:11.521Z,15.90
2023-03-29T13:03:50.175Z,15.80
2023-03-29T13:06:53.667Z,16.10
2023-03-29T13:09:57.981Z,16.20
2023-03-29T13:12:46.508Z,16.30
2023-03-29T13:15:19.280Z,16.20
2023-03-29T13:18:27.217Z,16.10
2023-03-29T13:21:21.233Z,16.00
2023-03-29T13:24:02.049Z,16.10
2023-03-29T13:27:07.547Z,16.00
2023-03-29T13:29:59.659Z,16.20
2023-03-29T13:33:29.205Z,16.30
2023-03-29T13:35:56.442Z,16.50
2023-03-29T13:38:31.833Z,16.80
2023-03-29T13:41:31.641Z,17.10
2023-03-29T13:43:59.172Z,17.40
2023-03-29T13:46:37.808Z,17.20
2023-03-29T13:49:23.967Z,17.20
2023-03-29T13:51:54.081Z,17.20
2023-03-29T13:54:32.770Z,17.30
2023-03-29T13:57:11.494Z,17.20
2023-03-29T14:00:00.813Z,17.20
2023-03-29T14:02:49.427Z,17.00
2023-03-29T14:05:28.890Z,16.70
2023-03-29T14:07:57.118Z,16.60
2023-03-29T14:10:42.801Z,16.60
2023-03-29T14:13:19.805Z,16.70
2023-03-29T14:15:55.499Z,16.60
2023-03-29T14:18:25.892Z,16.60
2023-03-29T14:20:56.164Z,16.80
2023-03-29T14:23:27.558Z,16.80
2023-03-29T14:25:54.796Z,16.90
2023-03-29T14:28:28.570Z,16.90
2023-03-29T14:30:56.762Z,17.00
2023-03-29T14:33:34.736Z,16.90
2023-03-29T14:36:04.519Z,16.80
2023-03-29T14:38:32.621Z,16.70
2023-03-29T14:41:01.356Z,16.70
2023-03-29T14:43:32.279Z,16.70
2023-03-29T14:46:04.479Z,16.70
2023-03-29T14:48:33.363Z,16.60
2023-03-29T14:51:01.212Z,16.50
2023-03-29T14:53:31.921Z,16.50
2023-03-29T14:55:59.488Z,16.50
2023-03-29T14:58:34.273Z,16.60
2023-03-29T15:01:17.031Z,16.60
2023-03-29T15:04:06.215Z,16.60
2023-03-29T15:06:42.337Z,16.70
2023-03-29T15:09:30.779Z,16.80
2023-03-29T15:12:00.208Z,16.80
2023-03-29T15:14:33.959Z,16.80
2023-03-29T15:17:36.046Z,16.70
2023-03-29T15:20:29.975Z,16.80
2023-03-29T15:23:04.550Z,16.90
2023-03-29T15:25:38.590Z,16.90
2023-03-29T15:28:06.413Z,16.90
2023-03-29T15:30:49.461Z,16.90
2023-03-29T15:33:25.031Z,17.00
2023-03-29T15:35:55.864Z,16.90
2023-03-29T15:38:27.697Z,16.80
2023-03-29T15:41:04.717Z,16.80
2023-03-29T15:43:31.991Z,16.80
2023-03-29T15:45:59.400Z,16.80
2023-03-29T15:48:29.044Z,16.80
2023-03-29T15:50:58.971Z,16.80
2023-03-29T15:53:28.013Z,16.80
2023-03-29T15:55:59.805Z,16.70
2023-03-29T15:58:31.097Z,16.70
2023-03-29T16:01:34.407Z,16.70
2023-03-29T16:04:32.342Z,16.70
2023-03-29T16:06:59.621Z,16.70
2023-03-29T16:09:27.661Z,16.60
2023-03-29T16:11:55.142Z,16.60
2023-03-29T16:14:27.242Z,16.60
2023-03-29T16:16:55.700Z,16.50
2023-03-29T16:19:24.318Z,16.40
2023-03-29T16:21:52.903Z,16.30
2023-03-29T16:24:27.317Z,16.30
2023-03-29T16:26:56.524Z,16.20
2023-03-29T16:29:24.952Z,16.20
2023-03-29T16:31:52.929Z,16.20
2023-03-29T16:34:21.862Z,16.20
2023-03-29T16:36:50.351Z,16.10
2023-03-29T16:39:18.340Z,16.10
2023-03-29T16:41:48.388Z,16.00
2023-03-29T16:44:23.858Z,16.00
2023-03-29T16:46:54.374Z,15.90
2023-03-29T16:49:22.435Z,15.90
2023-03-29T16:51:49.543Z,15.90
2023-03-29T16:54:17.486Z,15.80
2023-03-29T16:56:44.984Z,15.80
2023-03-29T16:59:12.512Z,15.70
2023-03-29T17:01:40.770Z,15.70
2023-03-29T17:04:08.862Z,15.70
2023-03-29T17:06:36.455Z,15.70
2023-03-29T17:09:05.209Z,15.60
2023-03-29T17:11:32.665Z,15.50
2023-03-29T17:14:00.209Z,15.50
2023-03-29T17:16:29.108Z,15.50
2023-03-29T17:19:00.441Z,15.40
2023-03-29T17:21:29.636Z,15.40
2023-03-29T17:23:56.882Z,15.30
2023-03-29T17:26:24.697Z,15.20
2023-03-29T17:28:52.020Z,15.20
2023-03-29T17:31:19.796Z,15.10
2023-03-29T17:33:47.649Z,15.10
2023-03-29T17:36:15.181Z,15.10
2023-03-29T17:38:43.074Z,15.10
2023-03-29T17:41:11.087Z,15.00
2023-03-29T17:43:38.284Z,15.00
2023-03-29T17:46:06.034Z,15.00
2023-03-29T17:48:33.867Z,14.90
2023-03-29T17:51:01.176Z,14.90
2023-03-29T17:53:28.457Z,14.80
2023-03-29T17:55:55.814Z,14.70
2023-03-29T17:58:23.621Z,14.70
2023-03-29T18:00:51.085Z,14.70
2023-03-29T18:03:18.333Z,14.80
2023-03-29T18:05:45.776Z,14.70
2023-03-29T18:08:15.106Z,14.70
2023-03-29T18:10:43.043Z,14.60
2023-03-29T18:13:13.849Z,14.60
2023-03-29T18:15:42.141Z,14.50
2023-03-29T18:18:09.298Z,14.50
2023-03-29T18:20:36.749Z,14.50
2023-03-29T18:23:03.953Z,14.50
2023-03-29T18:25:31.075Z,14.50
2023-03-29T18:27:58.354Z,14.50
2023-03-29T18:30:25.936Z,14.50
2023-03-29T18:32:53.315Z,14.40
2023-03-29T18:35:20.647Z,14.40
2023-03-29T18:37:47.797Z,14.40
2023-03-29T18:40:15.893Z,14.40
2023-03-29T18:42:43.088Z,14.30
2023-03-29T18:45:11.026Z,14.30
2023-03-29T18:47:38.214Z,14.30
2023-03-29T18:50:06.130Z,14.20
2023-03-29T18:52:33.292Z,14.20
2023-03-29T18:55:00.649Z,14.20
2023-03-29T18:57:27.971Z,14.20
2023-03-29T18:59:55.140Z,14.30
2023-03-29T19:02:22.323Z,14.20
2023-03-29T19:04:49.531Z,14.10
2023-03-29T19:07:17.755Z,14.10
2023-03-29T19:09:45.320Z,14.10
2023-03-29T19:12:12.516Z,14.00
2023-03-29T19:14:39.624Z,14.00
2023-03-29T19:17:06.781Z,13.90
2023-03-29T19:19:34.079Z,13.90
2023-03-29T19:22:01.230Z,13.90
2023-03-29T19:24:28.512Z,13.90
2023-03-29T19:26:56.582Z,13.80
2023-03-29T19:29:24.766Z,13.80
2023-03-29T19:31:52.040Z,13.80
2023-03-29T19:34:23.900Z,13.80
2023-03-29T19:36:53.530Z,13.80
2023-03-29T19:39:21.508Z,13.80
2023-03-29T19:41:48.745Z,13.80
2023-03-29T19:44:15.884Z,13.80
2023-03-29T19:46:43.076Z,13.80
2023-03-29T19:49:13.603Z,13.80
2023-03-29T19:51:43.096Z,13.80
2023-03-29T19:54:12.761Z,13.80
2023-03-29T19:56:40.821Z,13.80
2023-03-29T19:59:10.934Z,13.80
2023-03-29T20:01:40.954Z,13.80
2023-03-29T20:04:09.129Z,13.80
2023-03-29T20:06:36.238Z,13.70
2023-03-29T20:09:05.146Z,13.60
2023-03-29T20:11:32.186Z,13.60
2023-03-29T20:13:59.287Z,13.60
2023-03-29T20:16:27.125Z,13.70
2023-03-29T20:18:54.272Z,13.80
2023-03-29T20:21:21.394Z,13.80
2023-03-29T20:23:48.446Z,13.80
2023-03-29T20:26:15.515Z,13.70
2023-03-29T20:28:42.746Z,13.70
2023-03-29T20:31:13.157Z,13.60
2023-03-29T20:33:41.425Z,13.60
2023-03-29T20:36:09.096Z,13.60
2023-03-29T20:38:36.661Z,13.70
2023-03-29T20:41:05.331Z,13.60
2023-03-29T20:43:37.657Z,13.70
2023-03-29T20:46:14.236Z,13.70
2023-03-29T20:48:54.447Z,13.60
2023-03-29T20:51:30.382Z,13.60
2023-03-29T20:54:04.681Z,13.50
2023-03-29T20:56:37.393Z,13.50
2023-03-29T20:59:05.841Z,13.60
2023-03-29T21:01:40.663Z,13.60
2023-03-29T21:04:09.328Z,13.60
2023-03-29T21:06:39.484Z,13.60
2023-03-29T21:09:07.007Z,13.80
2023-03-29T21:11:34.146Z,13.80
2023-03-29T21:14:02.915Z,13.80
2023-03-29T21:16:30.973Z,13.80
2023-03-29T21:18:58.271Z,13.90
2023-03-29T21:21:25.585Z,14.10
2023-03-29T21:23:52.845Z,14.20
2023-03-29T21:26:19.960Z,14.20
2023-03-29T21:28:48.585Z,14.20
2023-03-29T21:31:15.975Z,14.20
2023-03-29T21:33:43.121Z,14.10
2023-03-29T21:36:10.832Z,14.20
2023-03-29T21:38:37.937Z,14.30
2023-03-29T21:41:05.645Z,14.30
2023-03-29T21:43:32.891Z,14.40
2023-03-29T21:46:00.011Z,14.40
2023-03-29T21:48:27.256Z,14.40
2023-03-29T21:50:54.694Z,14.20
2023-03-29T21:53:24.703Z,14.10
2023-03-29T21:55:52.420Z,14.10
2023-03-29T21:58:20.527Z,14.00
2023-03-29T22:00:48.683Z,14.00
2023-03-29T22:03:16.745Z,13.90
2023-03-29T22:05:44.445Z,14.00
2023-03-29T22:08:11.755Z,14.10
2023-03-29T22:10:41.290Z,14.10
2023-03-29T22:13:09.237Z,14.10
2023-03-29T22:15:38.971Z,14.20
2023-03-29T22:18:06.293Z,14.10
2023-03-29T22:20:34.230Z,14.10
2023-03-29T22:23:01.358Z,14.20
2023-03-29T22:25:28.722Z,14.10
2023-03-29T22:27:55.837Z,14.10
2023-03-29T22:30:23.062Z,14.10
2023-03-29T22:32:50.151Z,14.10
2023-03-29T22:35:17.338Z,14.10
2023-03-29T22:37:44.487Z,14.20
2023-03-29T22:40:13.182Z,14.30
2023-03-29T22:42:40.686Z,14.40
2023-03-29T22:45:08.974Z,14.50
2023-03-29T22:47:36.154Z,14.70
2023-03-29T22:50:03.444Z,14.80
2023-03-29T22:52:30.685Z,14.80
2023-03-29T22:54:57.772Z,14.80
2023-03-29T22:57:24.892Z,14.90
2023-03-29T22:59:52.040Z,14.80
2023-03-29T23:02:19.124Z,14.90
2023-03-29T23:04:46.935Z,15.00
2023-03-29T23:07:14.035Z,15.00
2023-03-29T23:09:41.105Z,15.20
2023-03-29T23:12:09.740Z,15.10
2023-03-29T23:14:37.576Z,15.20
2023-03-29T23:17:04.825Z,15.10
2023-03-29T23:19:32.105Z,15.00
2023-03-29T23:21:59.168Z,15.00
2023-03-29T23:24:26.648Z,15.10
2023-03-29T23:26:55.244Z,15.10
2023-03-29T23:29:22.724Z,15.10
2023-03-29T23:31:49.821Z,15.00
2023-03-29T23:34:18.233Z,15.00
2023-03-29T23:36:45.279Z,14.90
2023-03-29T23:39:12.361Z,14.80
2023-03-29T23:41:40.146Z,14.80
2023-03-29T23:44:07.892Z,14.90
2023-03-29T23:46:35.107Z,14.80
2023-03-29T23:49:02.181Z,14.70
2023-03-29T23:51:29.398Z,14.70
2023-03-29T23:53:57.106Z,14.70
2023-03-29T23:56:24.369Z,14.70
2023-03-29T23:58:51.787Z,14.70
